Time;durP1;ratioP1;P1;durP2;ratioP2;P2;SDS_P1;SDS_P2;PMS_P1;PMS_P2;Temp;Humidity;BMP_temperature;BMP_pressure;BME280_temperature;BME280_humidity;BME280_pressure;Samples;Min_cycle;Max_cycle;Signal;HPM_P1;HPM_P2
2023/12/18 00:00:12;;;;;;;22.23;12.73;;;5.80;96.00;;;;;;5051870;28;20052;-63
2023/12/18 00:02:37;;;;;;;23.73;13.43;;;5.80;96.00;;;;;;5051891;28;20531;-64
2023/12/18 00:05:03;;;;;;;23.25;12.82;;;5.80;96.20;;;;;;5033147;28;20340;-64
2023/12/18 00:07:29;;;;;;;23.00;13.38;;;5.80;96.40;;;;;;5035152;28;20078;-65
2023/12/18 00:09:54;;;;;;;24.92;13.38;;;5.80;96.20;;;;;;5033939;28;20024;-64
2023/12/18 00:12:20;;;;;;;23.10;12.75;;;5.70;96.40;;;;;;5035350;28;20355;-64
2023/12/18 00:14:45;;;;;;;20.80;12.65;;;5.70;96.40;;;;;;5034809;28;20025;-63
2023/12/18 00:17:11;;;;;;;19.33;11.90;;;5.70;96.60;;;;;;5035436;28;20029;-66
2023/12/18 00:19:37;;;;;;;22.23;11.88;;;5.70;96.80;;;;;;5066950;28;20036;-64
2023/12/18 00:22:03;;;;;;;22.00;12.35;;;5.70;97.00;;;;;;5070557;28;20021;-63
2023/12/18 00:24:28;;;;;;;20.65;12.38;;;5.60;97.10;;;;;;5055102;28;20031;-63
2023/12/18 00:26:54;;;;;;;21.73;13.40;;;5.60;97.30;;;;;;5054615;28;20037;-65
2023/12/18 00:29:20;;;;;;;25.00;12.85;;;5.60;97.30;;;;;;5055065;28;20029;-63
2023/12/18 00:31:47;;;;;;;25.30;12.93;;;5.60;97.20;;;;;;5054954;28;20025;-67
2023/12/18 00:34:13;;;;;;;25.85;12.80;;;5.60;97.10;;;;;;5055148;28;20028;-63
2023/12/18 00:36:39;;;;;;;22.33;13.15;;;5.60;97.30;;;;;;5055018;28;20029;-63
2023/12/18 00:39:05;;;;;;;20.58;12.52;;;5.60;97.30;;;;;;5054576;28;20454;-63
2023/12/18 00:41:32;;;;;;;22.90;12.77;;;5.60;97.10;;;;;;5054886;28;20036;-63
2023/12/18 00:43:57;;;;;;;23.15;12.98;;;5.60;97.50;;;;;;5053199;28;20476;-64
2023/12/18 00:46:23;;;;;;;23.77;12.32;;;5.50;97.50;;;;;;5054894;28;20116;-64
2023/12/18 00:48:49;;;;;;;23.75;11.80;;;5.50;97.50;;;;;;5054372;28;20036;-64
2023/12/18 00:51:14;;;;;;;26.30;12.02;;;5.50;97.50;;;;;;5054680;28;20369;-63
2023/12/18 00:53:40;;;;;;;22.50;12.68;;;5.40;97.50;;;;;;5054371;28;20029;-63
2023/12/18 00:56:06;;;;;;;22.85;12.45;;;5.40;97.80;;;;;;5054282;28;20036;-63
2023/12/18 00:58:31;;;;;;;23.83;11.90;;;5.40;98.00;;;;;;5054316;28;20049;-64
2023/12/18 01:00:57;;;;;;;22.10;11.07;;;5.40;98.10;;;;;;5054189;28;20037;-64
2023/12/18 01:03:22;;;;;;;26.23;12.65;;;5.40;98.30;;;;;;5054497;28;20454;-64
2023/12/18 01:05:48;;;;;;;20.83;12.65;;;5.40;98.50;;;;;;5054279;28;20037;-69
2023/12/18 01:08:14;;;;;;;19.48;11.85;;;5.40;98.60;;;;;;5054494;28;20028;-64
2023/12/18 01:10:39;;;;;;;21.42;12.07;;;5.40;98.50;;;;;;5054540;28;20041;-63
2023/12/18 01:13:05;;;;;;;23.83;11.82;;;5.40;98.70;;;;;;5053616;28;20033;-64
2023/12/18 01:15:31;;;;;;;24.15;12.60;;;5.40;99.10;;;;;;5053102;28;20032;-64
2023/12/18 01:17:56;;;;;;;21.20;12.38;;;5.40;99.20;;;;;;5053283;28;20104;-64
2023/12/18 01:20:22;;;;;;;25.00;12.95;;;5.40;99.20;;;;;;5054145;28;20025;-63
2023/12/18 01:22:48;;;;;;;24.52;13.05;;;5.30;99.30;;;;;;5054118;28;20108;-64
2023/12/18 01:25:13;;;;;;;22.25;12.55;;;5.30;99.30;;;;;;5053395;28;20458;-64
2023/12/18 01:27:41;;;;;;;19.42;12.20;;;5.30;99.60;;;;;;5053900;28;20385;-64
2023/12/18 01:30:08;;;;;;;21.27;12.63;;;5.30;99.60;;;;;;5053533;28;20027;-64
2023/12/18 01:32:33;;;;;;;21.38;12.65;;;5.30;99.90;;;;;;5053771;28;20029;-63
2023/12/18 01:34:59;;;;;;;21.88;12.15;;;5.30;99.90;;;;;;5053352;28;20115;-64
2023/12/18 01:37:25;;;;;;;24.92;12.52;;;5.30;99.90;;;;;;5053677;28;20091;-63
2023/12/18 01:39:50;;;;;;;24.27;12.48;;;5.30;99.90;;;;;;5053559;28;20029;-63
2023/12/18 01:42:16;;;;;;;20.08;12.63;;;5.30;99.90;;;;;;5053897;28;20458;-64
2023/12/18 01:44:42;;;;;;;21.92;12.75;;;5.30;99.90;;;;;;5053613;28;20029;-64
2023/12/18 01:47:08;;;;;;;21.88;11.88;;;5.20;99.90;;;;;;5053241;28;20385;-64
2023/12/18 01:49:35;;;;;;;20.83;11.85;;;5.20;99.90;;;;;;5053765;28;20031;-63
2023/12/18 01:52:02;;;;;;;22.27;13.63;;;5.20;99.90;;;;;;5053107;28;20103;-63
2023/12/18 01:54:28;;;;;;;19.73;12.13;;;5.20;99.90;;;;;;5053420;28;20031;-63
2023/12/18 01:56:54;;;;;;;22.67;12.80;;;5.20;99.90;;;;;;5052929;28;20029;-62
2023/12/18 01:59:21;;;;;;;25.33;14.25;;;5.10;99.90;;;;;;5053175;28;20076;-64
2023/12/18 02:01:48;;;;;;;26.33;12.85;;;5.10;99.90;;;;;;5053246;28;20035;-63
2023/12/18 02:04:15;;;;;;;22.27;12.80;;;5.10;99.90;;;;;;5052497;28;20032;-64
2023/12/18 02:06:41;;;;;;;20.80;13.63;;;5.10;99.90;;;;;;5052852;28;20037;-64
2023/12/18 02:09:07;;;;;;;21.42;12.80;;;5.10;99.90;;;;;;5052737;28;20180;-64
2023/12/18 02:11:32;;;;;;;25.10;13.40;;;5.10;99.90;;;;;;5052879;28;20438;-64
2023/12/18 02:13:58;;;;;;;21.25;12.95;;;5.10;99.90;;;;;;5052959;28;20454;-63
2023/12/18 02:16:24;;;;;;;25.45;12.95;;;5.10;99.90;;;;;;5056068;28;20029;-63
2023/12/18 02:18:50;;;;;;;21.55;13.07;;;5.10;99.90;;;;;;5072845;28;20081;-63
2023/12/18 02:21:19;;;;;;;24.73;13.10;;;5.10;99.90;;;;;;5072525;28;20028;-63
2023/12/18 02:23:48;;;;;;;25.30;13.93;;;5.10;99.90;;;;;;5064104;28;20160;-62
2023/12/18 02:26:15;;;;;;;22.40;12.40;;;5.00;99.90;;;;;;5052120;28;20440;-63
2023/12/18 02:28:43;;;;;;;27.55;12.65;;;5.00;99.90;;;;;;5052019;28;20095;-63
2023/12/18 02:31:12;;;;;;;22.58;13.07;;;4.90;99.90;;;;;;5052615;28;20565;-62
2023/12/18 02:33:37;;;;;;;23.63;13.18;;;4.90;99.90;;;;;;5052389;28;20048;-63
2023/12/18 02:36:03;;;;;;;22.50;12.95;;;4.90;99.90;;;;;;5051965;28;20033;-63
2023/12/18 02:38:29;;;;;;;22.00;12.85;;;4.90;99.90;;;;;;5052414;28;20103;-63
2023/12/18 02:40:55;;;;;;;28.05;13.13;;;4.90;99.90;;;;;;5052266;28;20029;-64
2023/12/18 02:43:20;;;;;;;22.63;12.57;;;4.90;99.90;;;;;;5052215;28;20027;-63
2023/12/18 02:45:46;;;;;;;24.95;13.18;;;4.90;99.90;;;;;;5052528;28;20039;-63
2023/12/18 02:48:11;;;;;;;21.52;12.50;;;4.90;99.90;;;;;;5052325;28;20024;-63
2023/12/18 02:50:37;;;;;;;25.15;12.82;;;4.90;99.90;;;;;;5052410;28;20082;-63
2023/12/18 02:53:03;;;;;;;22.50;11.35;;;4.90;99.90;;;;;;5051962;28;20068;-64
2023/12/18 02:55:28;;;;;;;22.50;12.45;;;4.90;99.90;;;;;;5052183;28;20036;-63
2023/12/18 02:57:54;;;;;;;19.45;11.90;;;4.90;99.90;;;;;;5052051;28;20029;-63
2023/12/18 03:00:20;;;;;;;22.05;10.95;;;4.90;99.90;;;;;;5051535;28;20128;-63
2023/12/18 03:02:45;;;;;;;23.00;12.20;;;4.90;99.90;;;;;;5051967;28;20043;-63
2023/12/18 03:05:11;;;;;;;22.60;11.73;;;4.90;99.90;;;;;;5051825;28;20478;-63
2023/12/18 03:07:36;;;;;;;19.77;11.80;;;4.90;99.90;;;;;;5052107;28;20029;-63
2023/12/18 03:10:03;;;;;;;20.48;10.70;;;4.90;99.90;;;;;;5051831;28;20087;-64
2023/12/18 03:12:28;;;;;;;17.88;10.95;;;4.90;99.90;;;;;;5052021;28;20132;-64
2023/12/18 03:14:54;;;;;;;21.42;11.23;;;4.90;99.90;;;;;;5051795;28;20052;-64
2023/12/18 03:17:19;;;;;;;20.83;12.65;;;4.90;99.90;;;;;;5051709;28;20470;-64
2023/12/18 03:19:45;;;;;;;23.73;12.88;;;4.80;99.90;;;;;;5052242;28;20029;-63
2023/12/18 03:22:13;;;;;;;20.67;12.27;;;4.80;99.90;;;;;;5051434;28;20485;-62
2023/12/18 03:24:39;;;;;;;17.27;11.25;;;4.70;99.90;;;;;;5051919;28;20030;-62
2023/12/18 03:27:05;;;;;;;23.60;12.05;;;4.70;99.90;;;;;;5051510;28;20068;-62
2023/12/18 03:29:31;;;;;;;21.58;12.57;;;4.70;99.90;;;;;;5051925;28;20087;-62
2023/12/18 03:31:56;;;;;;;20.33;11.73;;;4.70;99.90;;;;;;5051978;28;20466;-63
2023/12/18 03:34:22;;;;;;;21.08;11.95;;;4.70;99.90;;;;;;5051370;28;20052;-62
2023/12/18 03:36:48;;;;;;;19.73;11.95;;;4.70;99.90;;;;;;5051894;28;20112;-63
2023/12/18 03:39:13;;;;;;;19.52;12.07;;;4.70;99.90;;;;;;5051370;28;20021;-63
2023/12/18 03:41:39;;;;;;;20.13;11.68;;;4.70;99.90;;;;;;5055159;28;20439;-63
2023/12/18 03:44:04;;;;;;;22.05;11.45;;;4.70;99.90;;;;;;5055488;28;20031;-63
2023/12/18 03:46:30;;;;;;;16.00;10.65;;;4.70;99.90;;;;;;5055815;28;20178;-63
2023/12/18 03:48:55;;;;;;;21.42;12.45;;;4.70;99.90;;;;;;5055805;28;20465;-63
2023/12/18 03:51:21;;;;;;;23.95;12.27;;;4.70;99.90;;;;;;5055335;28;20029;-63
2023/12/18 03:53:47;;;;;;;22.50;12.27;;;4.60;99.90;;;;;;5055839;28;20229;-63
2023/12/18 03:56:13;;;;;;;19.95;11.63;;;4.60;99.90;;;;;;5055287;28;20041;-64
2023/12/18 03:58:38;;;;;;;18.73;12.30;;;4.60;99.90;;;;;;5055632;28;20045;-63
2023/12/18 04:01:04;;;;;;;22.33;12.43;;;4.60;99.90;;;;;;5055334;28;20029;-64
2023/12/18 04:03:29;;;;;;;20.67;11.57;;;4.60;99.90;;;;;;5055504;28;20029;-64
2023/12/18 04:05:55;;;;;;;18.02;11.93;;;4.50;99.90;;;;;;5055453;28;20037;-64
2023/12/18 04:08:20;;;;;;;22.33;11.82;;;4.50;99.90;;;;;;5055048;28;20048;-63
2023/12/18 04:10:46;;;;;;;17.60;11.13;;;4.50;99.90;;;;;;5054973;28;20108;-63
2023/12/18 04:13:12;;;;;;;22.05;11.55;;;4.50;99.90;;;;;;5054638;28;20036;-64
2023/12/18 04:15:38;;;;;;;21.52;11.73;;;4.50;99.90;;;;;;5054804;28;20124;-63
2023/12/18 04:18:04;;;;;;;18.70;10.73;;;4.40;99.90;;;;;;5054770;28;20021;-66
2023/12/18 04:20:30;;;;;;;20.98;11.48;;;4.40;99.90;;;;;;5055496;28;20025;-63
2023/12/18 04:22:56;;;;;;;19.58;11.18;;;4.40;99.90;;;;;;5055147;28;20130;-62
2023/12/18 04:25:22;;;;;;;20.83;11.75;;;4.40;99.90;;;;;;5060790;28;20433;-64
2023/12/18 04:27:48;;;;;;;23.00;12.68;;;4.40;99.90;;;;;;5074977;28;20032;-63
2023/12/18 04:30:13;;;;;;;21.98;11.70;;;4.40;99.90;;;;;;5066051;28;20029;-64
2023/12/18 04:32:39;;;;;;;19.05;10.65;;;4.40;99.90;;;;;;5054935;28;20065;-63
2023/12/18 04:35:05;;;;;;;21.08;11.85;;;4.40;99.90;;;;;;5054555;28;20075;-66
2023/12/18 04:37:30;;;;;;;24.25;11.52;;;4.40;99.90;;;;;;5055071;28;20025;-62
2023/12/18 04:39:56;;;;;;;18.58;11.23;;;4.40;99.90;;;;;;5054737;28;20416;-65
2023/12/18 04:42:22;;;;;;;21.92;11.35;;;4.40;99.90;;;;;;5054444;28;20029;-62
2023/12/18 04:44:48;;;;;;;18.17;11.40;;;4.40;99.90;;;;;;5054443;28;20036;-63
2023/12/18 04:47:14;;;;;;;21.20;12.35;;;4.40;99.90;;;;;;5052915;28;20493;-64
2023/12/18 04:49:40;;;;;;;23.58;11.80;;;4.40;99.90;;;;;;5054730;28;20029;-64
2023/12/18 04:52:05;;;;;;;21.60;11.75;;;4.40;99.90;;;;;;5053482;28;20131;-69
2023/12/18 04:54:31;;;;;;;20.92;11.98;;;4.40;99.90;;;;;;5054771;28;20112;-64
2023/12/18 04:56:57;;;;;;;19.45;11.82;;;4.30;99.90;;;;;;5054567;28;20104;-63
2023/12/18 04:59:22;;;;;;;17.77;11.20;;;4.30;99.90;;;;;;5054206;28;20053;-64
2023/12/18 05:01:48;;;;;;;19.67;10.82;;;4.30;99.90;;;;;;5053251;28;20119;-64
2023/12/18 05:04:13;;;;;;;22.45;12.07;;;4.30;99.90;;;;;;5054034;28;20021;-64
2023/12/18 05:06:40;;;;;;;22.35;12.10;;;4.30;99.90;;;;;;5053017;28;20041;-63
2023/12/18 05:09:06;;;;;;;25.80;13.35;;;4.30;99.90;;;;;;5054169;28;20025;-63
2023/12/18 05:11:32;;;;;;;28.85;12.95;;;4.30;99.90;;;;;;5054180;28;20021;-62
2023/12/18 05:13:58;;;;;;;19.73;11.55;;;4.30;99.90;;;;;;5054039;28;20508;-63
2023/12/18 05:16:24;;;;;;;16.63;10.73;;;4.30;99.90;;;;;;5053897;28;20060;-64
2023/12/18 05:18:49;;;;;;;20.35;12.43;;;4.30;99.90;;;;;;5054222;28;20032;-64
2023/12/18 05:21:15;;;;;;;20.30;11.68;;;4.30;99.90;;;;;;5053481;28;20098;-62
2023/12/18 05:23:40;;;;;;;19.60;11.75;;;4.30;99.90;;;;;;5054104;28;20029;-63
2023/12/18 05:26:06;;;;;;;19.02;11.35;;;4.30;99.90;;;;;;5053614;28;20041;-62
2023/12/18 05:28:32;;;;;;;18.83;10.90;;;4.30;99.90;;;;;;5053503;28;20462;-62
2023/12/18 05:30:58;;;;;;;20.73;11.13;;;4.30;99.90;;;;;;5053722;28;20033;-64
2023/12/18 05:33:25;;;;;;;17.27;9.45;;;4.30;99.90;;;;;;5053578;28;20044;-62
2023/12/18 05:35:50;;;;;;;15.00;7.72;;;4.40;99.90;;;;;;5048067;28;20033;-63
2023/12/18 05:38:16;;;;;;;14.90;8.43;;;4.40;99.90;;;;;;5053062;28;20377;-65
2023/12/18 05:40:42;;;;;;;19.45;10.38;;;4.40;99.90;;;;;;5058640;28;20401;-64
2023/12/18 05:43:07;;;;;;;26.30;10.18;;;4.50;99.90;;;;;;5041464;28;20107;-63
2023/12/18 05:45:33;;;;;;;23.92;10.95;;;4.50;99.90;;;;;;5040192;28;20029;-64
2023/12/18 05:47:59;;;;;;;19.65;10.70;;;4.50;99.90;;;;;;5053530;28;20029;-64
2023/12/18 05:50:26;;;;;;;22.10;9.93;;;4.50;99.90;;;;;;5053046;28;20036;-62
2023/12/18 05:52:51;;;;;;;20.23;10.90;;;4.50;99.90;;;;;;5061434;28;20025;-63
2023/12/18 05:55:17;;;;;;;19.45;9.48;;;4.40;99.90;;;;;;5049718;28;20056;-63
2023/12/18 05:57:43;;;;;;;18.02;9.20;;;4.40;99.90;;;;;;5049080;28;20041;-64
2023/12/18 06:00:09;;;;;;;14.32;8.02;;;4.40;99.90;;;;;;5041896;28;20100;-63
2023/12/18 06:02:36;;;;;;;16.38;8.82;;;4.40;99.90;;;;;;5032710;28;20038;-62
2023/12/18 06:05:02;;;;;;;15.98;7.68;;;4.40;99.90;;;;;;5050316;28;20056;-64
2023/12/18 06:07:29;;;;;;;10.00;5.60;;;4.40;99.90;;;;;;5052982;28;20048;-62
2023/12/18 06:09:55;;;;;;;16.38;6.82;;;4.50;99.90;;;;;;5056237;28;20466;-63
2023/12/18 06:12:21;;;;;;;9.98;5.38;;;4.60;99.90;;;;;;5052806;28;20099;-63
2023/12/18 06:14:47;;;;;;;11.90;6.13;;;4.60;99.90;;;;;;5043239;28;20037;-63
2023/12/18 06:17:12;;;;;;;14.30;6.93;;;4.70;99.90;;;;;;5049330;28;20485;-64
2023/12/18 06:19:38;;;;;;;12.80;7.05;;;4.70;99.90;;;;;;5066465;28;20028;-63
2023/12/18 06:22:04;;;;;;;10.88;7.00;;;4.80;99.90;;;;;;5067540;28;20021;-64
2023/12/18 06:24:30;;;;;;;12.75;7.85;;;4.90;99.90;;;;;;5043898;28;20116;-64
2023/12/18 06:26:56;;;;;;;12.85;7.78;;;4.90;99.80;;;;;;5043376;28;20163;-63
2023/12/18 06:29:22;;;;;;;14.60;7.45;;;4.90;99.40;;;;;;5050930;28;20412;-63
2023/12/18 06:31:48;;;;;;;12.43;7.03;;;5.00;99.10;;;;;;5052279;28;20033;-63
2023/12/18 06:34:14;;;;;;;14.23;7.78;;;5.00;98.70;;;;;;5052909;28;20363;-63
2023/12/18 06:36:40;;;;;;;12.57;7.25;;;5.00;98.50;;;;;;5047615;28;20042;-64
2023/12/18 06:39:05;;;;;;;12.27;7.18;;;5.00;98.30;;;;;;5049025;28;20024;-65
2023/12/18 06:41:31;;;;;;;14.15;6.85;;;5.10;98.20;;;;;;5048372;28;20028;-62
2023/12/18 06:43:56;;;;;;;15.95;7.57;;;5.10;98.20;;;;;;5038013;28;20029;-64
2023/12/18 06:46:22;;;;;;;10.18;6.80;;;5.10;97.80;;;;;;5051653;28;20033;-63
2023/12/18 06:48:48;;;;;;;13.35;6.95;;;5.00;97.70;;;;;;5051943;28;20021;-63
2023/12/18 06:51:13;;;;;;;12.70;7.65;;;5.00;97.80;;;;;;5049753;28;20115;-65
2023/12/18 06:53:39;;;;;;;12.38;7.82;;;5.00;97.90;;;;;;5050108;28;20032;-63
2023/12/18 06:56:05;;;;;;;15.60;8.55;;;5.00;97.90;;;;;;5072230;28;20032;-64
2023/12/18 06:58:31;;;;;;;11.65;7.68;;;4.90;97.90;;;;;;5069373;28;20405;-63
2023/12/18 07:00:56;;;;;;;14.05;8.85;;;4.90;98.00;;;;;;5051807;28;20098;-63
2023/12/18 07:03:22;;;;;;;14.10;7.35;;;4.90;98.00;;;;;;5045042;28;20036;-64
2023/12/18 07:05:48;;;;;;;15.18;6.93;;;4.80;98.00;;;;;;5052003;28;20083;-63
2023/12/18 07:08:13;;;;;;;13.93;6.85;;;4.80;98.20;;;;;;5055801;28;20067;-64
2023/12/18 07:10:39;;;;;;;10.50;6.80;;;4.80;98.20;;;;;;5052027;28;20342;-66
2023/12/18 07:13:05;;;;;;;12.90;6.65;;;4.90;98.40;;;;;;5040768;28;20040;-64
2023/12/18 07:15:31;;;;;;;10.77;6.80;;;4.90;98.30;;;;;;5050427;28;20032;-63
2023/12/18 07:17:58;;;;;;;11.38;6.80;;;4.90;98.30;;;;;;5048842;28;20028;-64
2023/12/18 07:20:24;;;;;;;13.55;7.20;;;4.80;98.50;;;;;;5048510;28;20064;-63
2023/12/18 07:22:49;;;;;;;15.43;7.60;;;4.90;98.40;;;;;;5045241;28;20025;-63
2023/12/18 07:25:15;;;;;;;17.88;8.77;;;4.90;98.60;;;;;;5046697;28;20136;-64
2023/12/18 07:27:41;;;;;;;13.88;7.28;;;4.90;98.60;;;;;;5049301;28;20037;-63
2023/12/18 07:30:07;;;;;;;16.70;7.28;;;4.90;98.70;;;;;;5063955;28;20032;-62
2023/12/18 07:32:32;;;;;;;12.77;6.50;;;4.90;98.70;;;;;;5049622;28;20458;-64
2023/12/18 07:35:00;;;;;;;16.50;7.13;;;4.90;98.70;;;;;;5045048;28;20119;-63
2023/12/18 07:37:29;;;;;;;16.35;7.45;;;4.90;98.80;;;;;;5050373;28;20382;-64
2023/12/18 07:39:59;;;;;;;13.85;6.93;;;4.90;98.80;;;;;;5054556;28;20047;-64
2023/12/18 07:42:25;;;;;;;14.73;7.32;;;4.90;98.80;;;;;;5051235;28;20025;-64
2023/12/18 07:44:51;;;;;;;21.15;7.88;;;5.00;98.90;;;;;;5043241;28;20033;-63
2023/12/18 07:47:17;;;;;;;16.00;7.40;;;5.00;99.10;;;;;;5042034;28;20104;-65
2023/12/18 07:49:43;;;;;;;17.90;7.80;;;5.00;99.20;;;;;;5045454;28;20025;-64
2023/12/18 07:52:08;;;;;;;18.90;8.02;;;5.10;99.20;;;;;;5040234;28;20109;-63
2023/12/18 07:54:34;;;;;;;16.92;7.47;;;5.10;99.20;;;;;;5038524;28;20022;-63
2023/12/18 07:57:02;;;;;;;17.67;7.50;;;5.20;99.20;;;;;;5038862;28;20038;-63
2023/12/18 07:59:28;;;;;;;14.07;8.13;;;5.20;99.20;;;;;;5047235;28;20102;-64
2023/12/18 08:01:54;;;;;;;15.85;7.95;;;5.20;99.10;;;;;;5049822;28;20044;-64
2023/12/18 08:04:20;;;;;;;16.58;8.57;;;5.30;99.10;;;;;;5050727;28;20040;-64
2023/12/18 08:06:47;;;;;;;17.10;8.98;;;5.30;99.10;;;;;;5050183;28;20044;-64
2023/12/18 08:09:13;;;;;;;27.33;9.85;;;5.30;99.10;;;;;;5042727;28;20025;-64
2023/12/18 08:11:39;;;;;;;22.52;9.93;;;5.40;99.30;;;;;;5035822;28;20042;-62
2023/12/18 08:14:05;;;;;;;21.65;8.82;;;5.40;99.20;;;;;;5041915;28;21127;-64
2023/12/18 08:16:31;;;;;;;28.48;10.32;;;5.50;99.20;;;;;;5049381;28;20474;-64
2023/12/18 08:18:57;;;;;;;22.88;9.00;;;5.50;99.10;;;;;;5050372;28;20059;-64
2023/12/18 08:21:25;;;;;;;27.65;10.35;;;5.50;99.10;;;;;;5043806;28;20083;-63
2023/12/18 08:23:50;;;;;;;23.25;9.57;;;5.60;99.20;;;;;;5044270;28;20452;-63
2023/12/18 08:26:17;;;;;;;32.95;11.00;;;5.60;99.30;;;;;;5050955;28;20041;-63
2023/12/18 08:28:43;;;;;;;38.95;14.60;;;5.70;99.50;;;;;;5054180;28;20033;-63
2023/12/18 08:31:10;;;;;;;38.83;14.23;;;5.70;99.60;;;;;;5054378;28;20561;-63
2023/12/18 08:33:35;;;;;;;38.90;11.35;;;5.70;99.60;;;;;;5049840;28;20059;-64
2023/12/18 08:36:01;;;;;;;34.22;9.48;;;5.80;99.70;;;;;;5052464;28;20389;-64
2023/12/18 08:38:28;;;;;;;28.85;9.30;;;5.80;99.70;;;;;;5055501;28;20029;-63
2023/12/18 08:40:54;;;;;;;31.33;9.48;;;5.90;99.50;;;;;;5058707;28;20119;-63
2023/12/18 08:43:20;;;;;;;18.15;8.93;;;6.00;99.40;;;;;;5068266;28;20173;-63
2023/12/18 08:45:46;;;;;;;18.83;7.28;;;6.00;99.30;;;;;;5043201;28;20428;-63
2023/12/18 08:48:11;;;;;;;24.48;8.60;;;6.10;99.30;;;;;;5033770;28;20036;-63
2023/12/18 08:50:37;;;;;;;17.58;6.88;;;6.20;99.10;;;;;;5044723;28;20101;-63
2023/12/18 08:53:03;;;;;;;16.00;7.57;;;6.30;99.00;;;;;;5042958;28;20378;-63
2023/12/18 08:55:29;;;;;;;19.63;7.10;;;6.40;98.60;;;;;;5040438;28;20412;-65
2023/12/18 08:57:55;;;;;;;19.30;7.78;;;6.40;98.40;;;;;;5045759;28;20086;-63
2023/12/18 09:00:20;;;;;;;12.68;7.10;;;6.50;98.20;;;;;;5047422;28;20052;-65
2023/12/18 09:02:46;;;;;;;17.08;6.85;;;6.60;98.10;;;;;;5045955;28;20041;-62
2023/12/18 09:05:12;;;;;;;12.02;6.75;;;6.60;97.80;;;;;;5044000;28;20111;-65
2023/12/18 09:07:37;;;;;;;13.68;6.75;;;6.70;97.50;;;;;;5043608;28;20885;-63
2023/12/18 09:10:03;;;;;;;13.77;7.28;;;6.70;97.30;;;;;;5045417;28;20153;-64
2023/12/18 09:12:29;;;;;;;11.43;7.20;;;6.80;97.00;;;;;;5045818;28;20040;-66
2023/12/18 09:14:55;;;;;;;13.75;7.95;;;6.80;96.70;;;;;;5044744;28;20021;-67
2023/12/18 09:17:21;;;;;;;14.27;7.80;;;6.90;96.30;;;;;;5043100;28;20128;-65
2023/12/18 09:19:46;;;;;;;14.73;7.65;;;6.90;96.00;;;;;;5044970;28;20116;-64
2023/12/18 09:22:12;;;;;;;11.25;7.28;;;6.90;95.90;;;;;;5045097;28;20029;-63
2023/12/18 09:24:38;;;;;;;11.15;7.45;;;7.00;96.00;;;;;;5043916;28;20131;-64
2023/12/18 09:27:03;;;;;;;15.68;8.48;;;7.00;96.00;;;;;;5044161;28;20442;-64
2023/12/18 09:29:29;;;;;;;14.50;8.07;;;7.00;95.80;;;;;;5044416;28;20033;-64
2023/12/18 09:31:54;;;;;;;15.98;8.15;;;7.10;95.60;;;;;;5043175;28;20033;-65
2023/12/18 09:34:20;;;;;;;13.15;8.35;;;7.10;95.60;;;;;;5042225;28;20043;-66
2023/12/18 09:36:46;;;;;;;17.05;9.27;;;7.10;95.50;;;;;;5044741;28;20033;-63
2023/12/18 09:39:11;;;;;;;21.00;8.27;;;7.20;95.30;;;;;;5046818;28;20120;-67
2023/12/18 09:41:37;;;;;;;50.17;10.68;;;7.20;95.30;;;;;;5044364;28;20075;-65
2023/12/18 09:44:03;;;;;;;24.13;8.05;;;7.30;95.50;;;;;;5042655;28;20040;-65
2023/12/18 09:46:29;;;;;;;16.13;7.75;;;7.40;95.30;;;;;;5044089;28;20045;-66
2023/12/18 09:48:55;;;;;;;30.33;9.93;;;7.40;95.20;;;;;;5044839;28;20462;-67
2023/12/18 09:51:25;;;;;;;30.27;9.25;;;7.50;95.30;;;;;;5044792;28;20056;-64
2023/12/18 09:53:52;;;;;;;21.73;9.05;;;7.50;95.20;;;;;;5044644;28;20040;-70
2023/12/18 09:56:20;;;;;;;21.08;8.50;;;7.60;95.20;;;;;;5042108;28;20099;-64
2023/12/18 09:58:46;;;;;;;17.70;7.85;;;7.70;95.10;;;;;;5043262;28;20128;-68
2023/12/18 10:01:12;;;;;;;11.73;7.20;;;7.80;95.30;;;;;;5044964;28;20116;-64
2023/12/18 10:03:37;;;;;;;14.60;8.05;;;8.00;95.50;;;;;;5042689;28;20538;-64
2023/12/18 10:06:04;;;;;;;10.55;7.10;;;8.20;95.60;;;;;;5039554;28;20039;-64
2023/12/18 10:08:30;;;;;;;11.48;6.28;;;8.40;95.40;;;;;;5041989;28;20032;-65
2023/12/18 10:10:55;;;;;;;9.55;5.70;;;8.60;94.80;;;;;;5045140;28;20488;-67
2023/12/18 10:13:21;;;;;;;8.55;4.55;;;8.90;94.20;;;;;;5044544;28;20068;-65
2023/12/18 10:15:47;;;;;;;8.68;4.80;;;9.20;93.10;;;;;;5042209;28;20045;-63
2023/12/18 10:18:16;;;;;;;9.98;6.00;;;9.50;92.70;;;;;;5042861;28;21540;-64
2023/12/18 10:20:42;;;;;;;11.45;4.80;;;9.70;91.80;;;;;;5044874;28;20409;-64
2023/12/18 10:23:08;;;;;;;11.93;5.40;;;10.00;91.40;;;;;;5043225;28;20211;-67
2023/12/18 10:25:35;;;;;;;13.80;5.97;;;10.20;88.80;;;;;;5038745;28;20119;-63
2023/12/18 10:28:00;;;;;;;8.93;5.45;;;10.50;87.50;;;;;;5043627;28;20048;-65
2023/12/18 10:30:28;;;;;;;24.50;8.55;;;10.80;86.00;;;;;;5045086;28;20033;-68
2023/12/18 10:32:55;;;;;;;19.80;9.27;;;11.10;84.80;;;;;;5043522;28;20060;-65
2023/12/18 10:35:24;;;;;;;20.90;9.30;;;11.30;84.10;;;;;;5042135;28;20048;-67
2023/12/18 10:37:54;;;;;;;20.10;9.68;;;11.50;82.60;;;;;;5044221;28;20032;-64
2023/12/18 10:40:23;;;;;;;21.00;9.60;;;11.60;81.80;;;;;;5042566;28;20098;-65
2023/12/18 10:43:23;;;;;;;19.23;9.05;;;11.80;80.80;;;;;;5043270;28;20064;-64
2023/12/18 10:45:52;;;;;;;15.25;8.23;;;12.00;80.40;;;;;;5040206;28;20029;-66
2023/12/18 10:48:19;;;;;;;12.13;7.65;;;12.20;80.10;;;;;;5045261;28;20111;-69
2023/12/18 10:50:47;;;;;;;15.60;7.03;;;12.30;79.00;;;;;;5042498;28;20811;-65
2023/12/18 10:53:17;;;;;;;15.63;6.25;;;12.50;77.90;;;;;;5043105;28;20090;-64
2023/12/18 10:55:42;;;;;;;20.73;6.35;;;12.60;75.90;;;;;;5039680;28;20481;-63
2023/12/18 10:58:09;;;;;;;2.42;1.48;;;12.80;76.00;;;;;;5042385;28;20111;-65
2023/12/18 11:00:37;;;;;;;1.45;0.85;;;12.90;71.60;;;;;;5039900;28;20025;-64
2023/12/18 11:03:05;;;;;;;3.15;1.00;;;13.10;67.80;;;;;;5043878;28;20032;-65
2023/12/18 11:05:31;;;;;;;1.58;1.10;;;13.30;66.10;;;;;;5040032;28;20445;-64
2023/12/18 11:07:58;;;;;;;3.33;1.23;;;13.50;64.00;;;;;;5041842;28;20044;-65
2023/12/18 11:10:27;;;;;;;1.77;1.00;;;13.70;63.30;;;;;;5044913;28;20369;-67
2023/12/18 11:13:18;;;;;;;6.63;2.85;;;13.90;62.00;;;;;;5040807;28;20370;-66
2023/12/18 11:15:47;;;;;;;9.13;5.03;;;14.00;63.20;;;;;;5030525;28;20053;-64
2023/12/18 11:19:00;;;;;;;10.30;4.90;;;14.20;63.70;;;;;;5043353;28;20474;-64
2023/12/18 11:21:26;;;;;;;12.02;5.95;;;14.30;63.70;;;;;;4998381;28;20034;-64
2023/12/18 11:23:52;;;;;;;11.30;5.07;;;14.40;65.00;;;;;;5000466;28;20034;-68
2023/12/18 11:26:18;;;;;;;4.80;2.90;;;14.40;63.80;;;;;;5017352;28;20168;-68
2023/12/18 11:28:48;;;;;;;3.03;2.05;;;14.50;61.70;;;;;;5042815;28;20032;-64
2023/12/18 11:31:20;;;;;;;1.70;1.20;;;14.60;61.00;;;;;;5044999;28;20048;-64
2023/12/18 11:34:03;;;;;;;1.70;1.02;;;14.60;58.70;;;;;;5042963;28;20029;-64
2023/12/18 11:36:29;;;;;;;1.83;0.95;;;14.70;58.20;;;;;;5042085;28;20048;-65
2023/12/18 11:38:57;;;;;;;1.85;0.90;;;14.70;55.80;;;;;;5043434;28;20033;-67
2023/12/18 11:41:45;;;;;;;1.25;0.90;;;14.80;56.60;;;;;;5041266;28;20379;-67
2023/12/18 11:44:12;;;;;;;1.02;0.90;;;14.90;55.70;;;;;;5040402;28;20493;-67
2023/12/18 11:46:38;;;;;;;1.33;0.75;;;15.00;55.70;;;;;;5042191;28;20079;-64
2023/12/18 11:49:06;;;;;;;2.72;1.08;;;15.10;55.10;;;;;;5043450;28;20087;-64
2023/12/18 11:51:33;;;;;;;2.55;0.80;;;15.10;54.20;;;;;;5040511;28;20368;-66
2023/12/18 11:54:02;;;;;;;1.63;1.30;;;15.20;53.10;;;;;;5042417;28;20029;-69
2023/12/18 11:56:30;;;;;;;1.30;0.70;;;15.20;53.90;;;;;;5041652;28;20545;-67
2023/12/18 11:58:56;;;;;;;1.70;0.82;;;15.20;52.50;;;;;;5042895;28;20091;-66
2023/12/18 12:01:21;;;;;;;1.58;1.00;;;15.30;52.20;;;;;;5042893;28;20044;-67
2023/12/18 12:03:47;;;;;;;4.35;1.10;;;15.30;51.60;;;;;;5046314;28;20104;-65
2023/12/18 12:06:16;;;;;;;2.40;0.73;;;15.30;51.40;;;;;;5042696;28;20071;-65
2023/12/18 12:08:49;;;;;;;1.20;0.80;;;15.30;50.80;;;;;;5044157;28;20516;-64
2023/12/18 12:11:15;;;;;;;1.58;1.10;;;15.30;50.20;;;;;;5046293;28;20063;-69
2023/12/18 12:13:41;;;;;;;1.90;1.20;;;15.30;50.40;;;;;;5045504;28;20041;-65
2023/12/18 12:16:06;;;;;;;1.63;1.02;;;15.40;50.70;;;;;;5041311;28;20363;-65
2023/12/18 12:18:34;;;;;;;1.08;0.80;;;15.40;50.30;;;;;;5046278;28;20037;-67
2023/12/18 12:21:00;;;;;;;0.98;0.82;;;15.40;49.50;;;;;;5044346;28;20040;-67
2023/12/18 12:23:29;;;;;;;1.40;1.00;;;15.40;49.70;;;;;;5045861;28;20025;-65
2023/12/18 12:25:59;;;;;;;1.00;0.88;;;15.40;50.10;;;;;;5042616;28;20033;-66
2023/12/18 12:28:29;;;;;;;2.88;0.60;;;15.40;49.60;;;;;;5045236;28;20527;-68
2023/12/18 12:30:54;;;;;;;1.80;0.80;;;15.40;49.10;;;;;;5046137;28;20119;-66
2023/12/18 12:33:20;;;;;;;1.80;0.82;;;15.40;49.00;;;;;;5045431;28;20144;-65
2023/12/18 12:35:46;;;;;;;2.53;1.13;;;15.40;49.20;;;;;;5042080;28;20029;-65